PWSweather.com
Personal Weather Stations
Station Observations
RTINEZ
TerrassaES 08226

TerrassaES 08226

Lat: 41.5762194, Lon: 2.028993700000001

Elevation: 367

Station Type: Watson W8681

www.rtinez.cat

High Low Average
Temperature 78.6°F25.9°C 67.5°F19.7°C 71.6°F22.0°C
Dew Point 67.9°F19.9°C 53.5°F11.9°C 59.5°F15.3°C
Winds 12.1 mph 19.5 kmh Calm Calm 4.0 mph SSE6.4 kmh SSE
Wind Gusts 132.0 mph212.4 kmh 3.1 mph5.0 kmh 15.0 mph24.1 kmh
Humidity 92% 44% 67%
Pressure 30.15 in1021.0 mb 28.85 in977.0 mb -
Precipitation 0.00 in0.0 mm - -
Hour Temp Dew Point Humidity Winds Wind Gusts Pressure Precip Precip Rate Daily Precip Total
12:00 AM 70.3°F21.3°C 67.9°F19.9°C 92% 1.6 mph ENE2.6 kmh ENE 6.9 mph11.1 kmh 30.08 in1018.6 mb 0.00 in0.0 mm 0.00 in0.0 mm 0.00 in0.0 mm
12:15 AM 70.3°F21.3°C 67.9°F19.9°C 92% 3.1 mph E5.0 kmh E 6.9 mph11.1 kmh 30.08 in1018.6 mb 0.00 in0.0 mm 0.00 in0.0 mm 0.00 in0.0 mm
12:30 AM 70.0°F21.1°C 67.6°F19.8°C 92% 4.5 mph E7.2 kmh E 6.9 mph11.1 kmh 30.08 in1018.6 mb 0.00 in0.0 mm 0.00 in0.0 mm 0.00 in0.0 mm
12:45 AM 70.0°F21.1°C 67.6°F19.8°C 92% 3.1 mph SE5.0 kmh SE 6.9 mph11.1 kmh 30.08 in1018.6 mb 0.00 in0.0 mm 0.00 in0.0 mm 0.00 in0.0 mm
01:00 AM 69.8°F21.0°C 67.1°F19.5°C 91% 2.2 mph ESE3.5 kmh ESE 6.0 mph9.7 kmh 30.09 in1019.0 mb 0.00 in0.0 mm 0.00 in0.0 mm 0.00 in0.0 mm
01:15 AM 69.6°F20.9°C 66.9°F19.4°C 91% 1.6 mph E2.6 kmh E 5.4 mph8.7 kmh 30.09 in1019.0 mb 0.00 in0.0 mm 0.00 in0.0 mm 0.00 in0.0 mm
01:30 AM 69.3°F20.7°C 66.6°F19.2°C 91% 3.1 mph ENE5.0 kmh ENE 6.0 mph9.7 kmh 30.09 in1019.0 mb 0.00 in0.0 mm 0.00 in0.0 mm 0.00 in0.0 mm
01:45 AM 68.9°F20.5°C 65.9°F18.8°C 90% 3.8 mph NE6.1 kmh NE 6.9 mph11.1 kmh 30.09 in1019.0 mb 0.00 in0.0 mm 0.00 in0.0 mm 0.00 in0.0 mm
02:00 AM 68.7°F20.4°C 64.1°F17.8°C 85% 3.1 mph ENE5.0 kmh ENE 8.3 mph13.4 kmh 30.09 in1019.0 mb 0.00 in0.0 mm 0.00 in0.0 mm 0.00 in0.0 mm
02:15 AM 68.9°F20.5°C 62.5°F16.9°C 80% 4.5 mph E7.2 kmh E 6.9 mph11.1 kmh 30.09 in1019.0 mb 0.00 in0.0 mm 0.00 in0.0 mm 0.00 in0.0 mm
02:30 AM 69.1°F20.6°C 62.0°F16.7°C 78% 3.1 mph NE5.0 kmh NE 6.9 mph11.1 kmh 30.09 in1019.0 mb 0.00 in0.0 mm 0.00 in0.0 mm 0.00 in0.0 mm
02:45 AM 69.1°F20.6°C 62.0°F16.7°C 78% 3.1 mph ENE5.0 kmh ENE 6.0 mph9.7 kmh 30.08 in1018.6 mb 0.00 in0.0 mm 0.00 in0.0 mm 0.00 in0.0 mm
03:00 AM 69.1°F20.6°C 61.6°F16.4°C 77% 3.8 mph NE6.1 kmh NE 8.3 mph13.4 kmh 30.09 in1019.0 mb 0.00 in0.0 mm 0.00 in0.0 mm 0.00 in0.0 mm
03:15 AM 69.4°F20.8°C 60.8°F16.0°C 74% 2.2 mph E3.5 kmh E 8.3 mph13.4 kmh 30.09 in1019.0 mb 0.00 in0.0 mm 0.00 in0.0 mm 0.00 in0.0 mm
03:30 AM 69.4°F20.8°C 60.0°F15.6°C 72% 2.2 mph E3.5 kmh E 8.3 mph13.4 kmh 30.08 in1018.6 mb 0.00 in0.0 mm 0.00 in0.0 mm 0.00 in0.0 mm
03:45 AM 69.1°F20.6°C 59.3°F15.2°C 71% 4.5 mph ENE7.2 kmh ENE 7.6 mph12.2 kmh 30.09 in1019.0 mb 0.00 in0.0 mm 0.00 in0.0 mm 0.00 in0.0 mm
04:00 AM 69.4°F20.8°C 59.3°F15.2°C 70% 5.4 mph NE8.7 kmh NE 9.2 mph14.8 kmh 30.08 in1018.6 mb 0.00 in0.0 mm 0.00 in0.0 mm 0.00 in0.0 mm
04:15 AM 69.6°F20.9°C 59.0°F15.0°C 69% 2.2 mph E3.5 kmh E 9.8 mph15.8 kmh 30.09 in1019.0 mb 0.00 in0.0 mm 0.00 in0.0 mm 0.00 in0.0 mm
04:30 AM 69.6°F20.9°C 58.6°F14.8°C 68% 5.4 mph E8.7 kmh E 9.2 mph14.8 kmh 30.08 in1018.6 mb 0.00 in0.0 mm 0.00 in0.0 mm 0.00 in0.0 mm
04:45 AM 69.6°F20.9°C 58.6°F14.8°C 68% 3.8 mph NE6.1 kmh NE 8.3 mph13.4 kmh 30.09 in1019.0 mb 0.00 in0.0 mm 0.00 in0.0 mm 0.00 in0.0 mm
05:00 AM 69.6°F20.9°C 58.6°F14.8°C 68% 2.2 mph ENE3.5 kmh ENE 9.2 mph14.8 kmh 30.09 in1019.0 mb 0.00 in0.0 mm 0.00 in0.0 mm 0.00 in0.0 mm
05:15 AM 69.6°F20.9°C 59.0°F15.0°C 69% 3.1 mph E5.0 kmh E 6.0 mph9.7 kmh 30.09 in1019.0 mb 0.00 in0.0 mm 0.00 in0.0 mm 0.00 in0.0 mm
05:30 AM 69.6°F20.9°C 59.0°F15.0°C 69% 3.1 mph E5.0 kmh E 9.2 mph14.8 kmh 30.09 in1019.0 mb 0.00 in0.0 mm 0.00 in0.0 mm 0.00 in0.0 mm
05:45 AM 69.4°F20.8°C 59.3°F15.2°C 70% 3.1 mph ENE5.0 kmh ENE 7.6 mph12.2 kmh 30.09 in1019.0 mb 0.00 in0.0 mm 0.00 in0.0 mm 0.00 in0.0 mm
06:00 AM 69.3°F20.7°C 59.1°F15.1°C 70% 2.2 mph NE3.5 kmh NE 7.6 mph12.2 kmh 30.09 in1019.0 mb 0.00 in0.0 mm 0.00 in0.0 mm 0.00 in0.0 mm
06:15 AM 69.1°F20.6°C 58.9°F14.9°C 70% 3.1 mph ENE5.0 kmh ENE 6.0 mph9.7 kmh 30.10 in1019.3 mb 0.00 in0.0 mm 0.00 in0.0 mm 0.00 in0.0 mm
06:30 AM 69.1°F20.6°C 59.3°F15.2°C 71% 5.4 mph NE8.7 kmh NE 7.6 mph12.2 kmh 30.10 in1019.3 mb 0.00 in0.0 mm 0.00 in0.0 mm 0.00 in0.0 mm
06:45 AM 68.9°F20.5°C 59.1°F15.1°C 71% 1.6 mph ENE2.6 kmh ENE 4.5 mph7.2 kmh 30.10 in1019.3 mb 0.00 in0.0 mm 0.00 in0.0 mm 0.00 in0.0 mm
07:00 AM 68.9°F20.5°C 59.5°F15.3°C 72% 2.2 mph ENE3.5 kmh ENE 4.5 mph7.2 kmh 30.10 in1019.3 mb 0.00 in0.0 mm 0.00 in0.0 mm 0.00 in0.0 mm
07:15 AM 68.9°F20.5°C 59.5°F15.3°C 72% 1.6 mph E2.6 kmh E 4.5 mph7.2 kmh 30.11 in1019.6 mb 0.00 in0.0 mm 0.00 in0.0 mm 0.00 in0.0 mm
07:30 AM 69.3°F20.7°C 59.9°F15.5°C 72% Calm Calm 3.1 mph5.0 kmh 30.12 in1020.0 mb 0.00 in0.0 mm 0.00 in0.0 mm 0.00 in0.0 mm
07:45 AM 69.6°F20.9°C 60.2°F15.7°C 72% Calm Calm 3.8 mph6.1 kmh 30.12 in1020.0 mb 0.00 in0.0 mm 0.00 in0.0 mm 0.00 in0.0 mm
08:00 AM 70.0°F21.1°C 60.2°F15.7°C 71% 1.6 mph E2.6 kmh E 3.8 mph6.1 kmh 30.12 in1020.0 mb 0.00 in0.0 mm 0.00 in0.0 mm 0.00 in0.0 mm
08:15 AM 69.8°F21.0°C 60.4°F15.8°C 72% 2.2 mph ESE3.5 kmh ESE 4.5 mph7.2 kmh 30.12 in1020.0 mb 0.00 in0.0 mm 0.00 in0.0 mm 0.00 in0.0 mm
08:30 AM 70.3°F21.3°C 61.3°F16.3°C 73% 2.2 mph ESE3.5 kmh ESE 4.5 mph7.2 kmh 30.14 in1020.7 mb 0.00 in0.0 mm 0.00 in0.0 mm 0.00 in0.0 mm
08:45 AM 72.7°F22.6°C 61.5°F16.4°C 68% 1.6 mph SE2.6 kmh SE 5.4 mph8.7 kmh 30.14 in1020.7 mb 0.00 in0.0 mm 0.00 in0.0 mm 0.00 in0.0 mm
09:00 AM 73.6°F23.1°C 61.6°F16.4°C 66% 3.8 mph SE6.1 kmh SE 6.0 mph9.7 kmh 30.13 in1020.3 mb 0.00 in0.0 mm 0.00 in0.0 mm 0.00 in0.0 mm
09:15 AM 72.5°F22.5°C 61.4°F16.3°C 68% 2.2 mph SSE3.5 kmh SSE 6.9 mph11.1 kmh 30.14 in1020.7 mb 0.00 in0.0 mm 0.00 in0.0 mm 0.00 in0.0 mm
09:30 AM 73.6°F23.1°C 61.1°F16.2°C 65% 8.5 mph NE13.7 kmh NE 129.0 mph207.6 kmh 30.15 in1021.0 mb 0.00 in0.0 mm 0.00 in0.0 mm 0.00 in0.0 mm
09:45 AM 73.2°F22.9°C 58.1°F14.5°C 59% 4.5 mph NNE7.2 kmh NNE 129.0 mph207.6 kmh 30.15 in1021.0 mb 0.00 in0.0 mm 0.00 in0.0 mm 0.00 in0.0 mm
10:00 AM 74.1°F23.4°C 57.9°F14.4°C 57% 2.2 mph NE3.5 kmh NE 132.0 mph212.4 kmh 30.15 in1021.0 mb 0.00 in0.0 mm 0.00 in0.0 mm 0.00 in0.0 mm
10:15 AM 78.6°F25.9°C 60.1°F15.6°C 53% 8.5 mph NE13.7 kmh NE 132.0 mph212.4 kmh 30.15 in1021.0 mb 0.00 in0.0 mm 0.00 in0.0 mm 0.00 in0.0 mm
10:30 AM 75.7°F24.3°C 56.9°F13.8°C 52% 3.8 mph NE6.1 kmh NE 132.0 mph212.4 kmh 30.05 in1017.6 mb 0.00 in0.0 mm 0.00 in0.0 mm 0.00 in0.0 mm
10:45 AM 75.7°F24.3°C 56.9°F13.8°C 52% 5.4 mph SE8.7 kmh SE 7.6 mph12.2 kmh 30.05 in1017.6 mb 0.00 in0.0 mm 0.00 in0.0 mm 0.00 in0.0 mm
11:00 AM 75.7°F24.3°C 56.9°F13.8°C 52% 5.4 mph S8.7 kmh S 21.5 mph34.6 kmh 30.15 in1021.0 mb 0.00 in0.0 mm 0.00 in0.0 mm 0.00 in0.0 mm
11:15 AM 75.7°F24.3°C 57.4°F14.1°C 53% 5.4 mph SSE8.7 kmh SSE 9.2 mph14.8 kmh 30.15 in1021.0 mb 0.00 in0.0 mm 0.00 in0.0 mm 0.00 in0.0 mm
11:30 AM 75.4°F24.1°C 56.0°F13.3°C 51% 6.0 mph SE9.7 kmh SE 10.7 mph17.2 kmh 30.15 in1021.0 mb 0.00 in0.0 mm 0.00 in0.0 mm 0.00 in0.0 mm
11:45 AM 74.3°F23.5°C 55.0°F12.8°C 51% 5.4 mph SSE8.7 kmh SSE 13.0 mph20.9 kmh 30.14 in1020.7 mb 0.00 in0.0 mm 0.00 in0.0 mm 0.00 in0.0 mm
12:00 PM 74.5°F23.6°C 55.7°F13.2°C 52% 5.4 mph SE8.7 kmh SE 10.7 mph17.2 kmh 30.15 in1021.0 mb 0.00 in0.0 mm 0.00 in0.0 mm 0.00 in0.0 mm
12:15 PM 75.7°F24.3°C 54.7°F12.6°C 48% 4.5 mph S7.2 kmh S 12.1 mph19.5 kmh 30.15 in1021.0 mb 0.00 in0.0 mm 0.00 in0.0 mm 0.00 in0.0 mm
12:30 PM 75.7°F24.3°C 54.1°F12.3°C 47% 8.3 mph S13.4 kmh S 10.7 mph17.2 kmh 30.15 in1021.0 mb 0.00 in0.0 mm 0.00 in0.0 mm 0.00 in0.0 mm
12:45 PM 75.7°F24.3°C 54.7°F12.6°C 48% 2.2 mph SE3.5 kmh SE 8.3 mph13.4 kmh 30.14 in1020.7 mb 0.00 in0.0 mm 0.00 in0.0 mm 0.00 in0.0 mm
01:00 PM 75.7°F24.3°C 53.5°F11.9°C 46% 3.8 mph SE6.1 kmh SE 6.9 mph11.1 kmh 30.14 in1020.7 mb 0.00 in0.0 mm 0.00 in0.0 mm 0.00 in0.0 mm
01:15 PM 75.7°F24.3°C 54.1°F12.3°C 47% 3.1 mph SSE5.0 kmh SSE 12.1 mph19.5 kmh 30.14 in1020.7 mb 0.00 in0.0 mm 0.00 in0.0 mm 0.00 in0.0 mm
01:30 PM 75.7°F24.3°C 54.1°F12.3°C 47% 5.4 mph ESE8.7 kmh ESE 10.7 mph17.2 kmh 30.13 in1020.3 mb 0.00 in0.0 mm 0.00 in0.0 mm 0.00 in0.0 mm
01:45 PM 75.7°F24.3°C 54.1°F12.3°C 47% 3.8 mph SE6.1 kmh SE 9.2 mph14.8 kmh 30.12 in1020.0 mb 0.00 in0.0 mm 0.00 in0.0 mm 0.00 in0.0 mm
02:00 PM 75.7°F24.3°C 54.1°F12.3°C 47% 9.8 mph SSW15.8 kmh SSW 13.0 mph20.9 kmh 30.12 in1020.0 mb 0.00 in0.0 mm 0.00 in0.0 mm 0.00 in0.0 mm
02:15 PM 77.2°F25.1°C 53.6°F12.0°C 44% 8.3 mph WSW13.4 kmh WSW 14.5 mph23.3 kmh 30.11 in1019.6 mb 0.00 in0.0 mm 0.00 in0.0 mm 0.00 in0.0 mm
02:30 PM 75.2°F24.0°C 54.8°F12.7°C 49% 5.4 mph S8.7 kmh S 12.1 mph19.5 kmh 30.11 in1019.6 mb 0.00 in0.0 mm 0.00 in0.0 mm 0.00 in0.0 mm
02:45 PM 77.2°F25.1°C 53.6°F12.0°C 44% 4.5 mph S7.2 kmh S 12.1 mph19.5 kmh 30.11 in1019.6 mb 0.00 in0.0 mm 0.00 in0.0 mm 0.00 in0.0 mm
03:00 PM 77.4°F25.2°C 54.4°F12.4°C 45% 7.6 mph S12.2 kmh S 15.2 mph24.5 kmh 30.10 in1019.3 mb 0.00 in0.0 mm 0.00 in0.0 mm 0.00 in0.0 mm
03:15 PM 77.2°F25.1°C 54.2°F12.3°C 45% 7.6 mph S12.2 kmh S 15.9 mph25.6 kmh 30.11 in1019.6 mb 0.00 in0.0 mm 0.00 in0.0 mm 0.00 in0.0 mm
03:30 PM 77.2°F25.1°C 55.4°F13.0°C 47% 9.2 mph S14.8 kmh S 14.5 mph23.3 kmh 30.11 in1019.6 mb 0.00 in0.0 mm 0.00 in0.0 mm 0.00 in0.0 mm
03:45 PM 75.7°F24.3°C 54.7°F12.6°C 48% 12.1 mph S19.5 kmh S 16.8 mph27.0 kmh 30.10 in1019.3 mb 0.00 in0.0 mm 0.00 in0.0 mm 0.00 in0.0 mm
04:00 PM 75.7°F24.3°C 56.4°F13.6°C 51% 7.6 mph SSW12.2 kmh SSW 14.5 mph23.3 kmh 30.09 in1019.0 mb 0.00 in0.0 mm 0.00 in0.0 mm 0.00 in0.0 mm
04:15 PM 75.7°F24.3°C 55.8°F13.2°C 50% 9.2 mph SW14.8 kmh SW 15.2 mph24.5 kmh 30.09 in1019.0 mb 0.00 in0.0 mm 0.00 in0.0 mm 0.00 in0.0 mm
04:30 PM 75.7°F24.3°C 56.9°F13.8°C 52% 2.2 mph S3.5 kmh S 13.6 mph21.9 kmh 30.09 in1019.0 mb 0.00 in0.0 mm 0.00 in0.0 mm 0.00 in0.0 mm
04:45 PM 75.7°F24.3°C 56.9°F13.8°C 52% 3.1 mph S5.0 kmh S 12.1 mph19.5 kmh 30.09 in1019.0 mb 0.00 in0.0 mm 0.00 in0.0 mm 0.00 in0.0 mm
05:00 PM 75.7°F24.3°C 56.9°F13.8°C 52% 4.5 mph S7.2 kmh S 10.7 mph17.2 kmh 28.86 in977.3 mb 0.00 in0.0 mm 0.00 in0.0 mm 0.00 in0.0 mm
05:15 PM 75.0°F23.9°C 57.8°F14.3°C 55% 6.9 mph S11.1 kmh S 11.4 mph18.3 kmh 30.08 in1018.6 mb 0.00 in0.0 mm 0.00 in0.0 mm 0.00 in0.0 mm
05:30 PM 75.2°F24.0°C 56.9°F13.8°C 53% 3.1 mph SW5.0 kmh SW 12.1 mph19.5 kmh 30.08 in1018.6 mb 0.00 in0.0 mm 0.00 in0.0 mm 0.00 in0.0 mm
05:45 PM 73.6°F23.1°C 56.9°F13.8°C 56% 7.6 mph S12.2 kmh S 11.4 mph18.3 kmh 30.08 in1018.6 mb 0.00 in0.0 mm 0.00 in0.0 mm 0.00 in0.0 mm
06:00 PM 72.7°F22.6°C 56.6°F13.7°C 57% 6.0 mph SSE9.7 kmh SSE 12.1 mph19.5 kmh 28.86 in977.3 mb 0.00 in0.0 mm 0.00 in0.0 mm 0.00 in0.0 mm
06:15 PM 73.0°F22.8°C 57.4°F14.1°C 58% 3.1 mph S5.0 kmh S 8.3 mph13.4 kmh 30.07 in1018.3 mb 0.00 in0.0 mm 0.00 in0.0 mm 0.00 in0.0 mm
06:30 PM 73.0°F22.8°C 57.4°F14.1°C 58% 3.1 mph SW5.0 kmh SW 6.0 mph9.7 kmh 28.86 in977.3 mb 0.00 in0.0 mm 0.00 in0.0 mm 0.00 in0.0 mm
06:45 PM 70.7°F21.5°C 58.4°F14.7°C 65% 6.9 mph WSW11.1 kmh WSW 11.4 mph18.3 kmh 28.86 in977.3 mb 0.00 in0.0 mm 0.00 in0.0 mm 0.00 in0.0 mm
07:00 PM 70.2°F21.2°C 59.5°F15.3°C 69% 2.2 mph S3.5 kmh S 6.9 mph11.1 kmh 30.08 in1018.6 mb 0.00 in0.0 mm 0.00 in0.0 mm 0.00 in0.0 mm
07:15 PM 70.2°F21.2°C 59.9°F15.5°C 70% 3.8 mph SW6.1 kmh SW 6.9 mph11.1 kmh 30.08 in1018.6 mb 0.00 in0.0 mm 0.00 in0.0 mm 0.00 in0.0 mm
07:30 PM 69.8°F21.0°C 60.0°F15.6°C 71% 3.8 mph WSW6.1 kmh WSW 7.6 mph12.2 kmh 30.08 in1018.6 mb 0.00 in0.0 mm 0.00 in0.0 mm 0.00 in0.0 mm
07:45 PM 69.1°F20.6°C 60.5°F15.8°C 74% 5.4 mph WSW8.7 kmh WSW 8.3 mph13.4 kmh 28.87 in977.7 mb 0.00 in0.0 mm 0.00 in0.0 mm 0.00 in0.0 mm
08:00 PM 68.9°F20.5°C 60.7°F15.9°C 75% 3.8 mph W6.1 kmh W 6.0 mph9.7 kmh 28.86 in977.3 mb 0.00 in0.0 mm 0.00 in0.0 mm 0.00 in0.0 mm
08:15 PM 68.5°F20.3°C 61.1°F16.2°C 77% 4.5 mph WSW7.2 kmh WSW 6.9 mph11.1 kmh 28.86 in977.3 mb 0.00 in0.0 mm 0.00 in0.0 mm 0.00 in0.0 mm
08:30 PM 68.2°F20.1°C 61.4°F16.3°C 79% 5.4 mph W8.7 kmh W 7.6 mph12.2 kmh 28.87 in977.7 mb 0.00 in0.0 mm 0.00 in0.0 mm 0.00 in0.0 mm
08:45 PM 68.2°F20.1°C 61.8°F16.6°C 80% 0.7 mph NW1.1 kmh NW 8.3 mph13.4 kmh 30.09 in1019.0 mb 0.00 in0.0 mm 0.00 in0.0 mm 0.00 in0.0 mm
09:00 PM 68.2°F20.1°C 61.1°F16.2°C 78% 6.9 mph NW11.1 kmh NW 9.2 mph14.8 kmh 30.08 in1018.6 mb 0.00 in0.0 mm 0.00 in0.0 mm 0.00 in0.0 mm
09:15 PM 68.0°F20.0°C 61.3°F16.3°C 79% 3.8 mph W6.1 kmh W 8.3 mph13.4 kmh 30.09 in1019.0 mb 0.00 in0.0 mm 0.00 in0.0 mm 0.00 in0.0 mm
09:30 PM 68.2°F20.1°C 62.2°F16.8°C 81% 6.0 mph WNW9.7 kmh WNW 8.3 mph13.4 kmh 28.87 in977.7 mb 0.00 in0.0 mm 0.00 in0.0 mm 0.00 in0.0 mm
09:45 PM 68.2°F20.1°C 62.8°F17.1°C 83% 5.4 mph WNW8.7 kmh WNW 9.2 mph14.8 kmh 30.08 in1018.6 mb 0.00 in0.0 mm 0.00 in0.0 mm 0.00 in0.0 mm
10:00 PM 68.0°F20.0°C 63.0°F17.2°C 84% 6.0 mph WNW9.7 kmh WNW 11.4 mph18.3 kmh 28.86 in977.3 mb 0.00 in0.0 mm 0.00 in0.0 mm 0.00 in0.0 mm
10:15 PM 67.6°F19.8°C 63.7°F17.6°C 87% 5.4 mph WNW8.7 kmh WNW 10.7 mph17.2 kmh 28.86 in977.3 mb 0.00 in0.0 mm 0.00 in0.0 mm 0.00 in0.0 mm
10:30 PM 67.6°F19.8°C 63.7°F17.6°C 87% 3.8 mph W6.1 kmh W 9.8 mph15.8 kmh 28.86 in977.3 mb 0.00 in0.0 mm 0.00 in0.0 mm 0.00 in0.0 mm
10:45 PM 67.8°F19.9°C 63.8°F17.7°C 87% 3.8 mph WNW6.1 kmh WNW 10.7 mph17.2 kmh 28.85 in977.0 mb 0.00 in0.0 mm 0.00 in0.0 mm 0.00 in0.0 mm
11:00 PM 67.8°F19.9°C 63.5°F17.5°C 86% 6.9 mph WNW11.1 kmh WNW 13.0 mph20.9 kmh 28.85 in977.0 mb 0.00 in0.0 mm 0.00 in0.0 mm 0.00 in0.0 mm
11:15 PM 67.6°F19.8°C 63.3°F17.4°C 86% 5.4 mph W8.7 kmh W 10.7 mph17.2 kmh 30.07 in1018.3 mb 0.00 in0.0 mm 0.00 in0.0 mm 0.00 in0.0 mm
11:30 PM 67.5°F19.7°C 63.5°F17.5°C 87% 5.4 mph WNW8.7 kmh WNW 10.7 mph17.2 kmh 30.07 in1018.3 mb 0.00 in0.0 mm 0.00 in0.0 mm 0.00 in0.0 mm
11:45 PM 67.5°F19.7°C 63.5°F17.5°C 87% 3.8 mph W6.1 kmh W 6.9 mph11.1 kmh 30.07 in1018.3 mb 0.00 in0.0 mm 0.00 in0.0 mm 0.00 in0.0 mm